Ana Sayfa
METAR-TAF:

METAR-TAF

Havaalanları :

Bouaké, Fildişi Sahili

Enlem: 07-44N, Boylam: 005-04W, yükseklik: 376 m

Güncel hava durumu gözlemi

Rapor saat 03:00 UTC de 43 dakika önce yapıldı.
Rüzgar güneydan 6 kt
Sıcaklık 26°C
Nem 79%
Basınç 1011 hPa
Görüş mesafesi: 7000 m

METAR: DIBK 190300Z 18006KT 7000 NSC 26/22 Q1011 NOSIG

Saat: 03:43 (03:43 UTC)

Tahmin

Rapor saat 23:00 UTC de 4 saat ve 43 dakika önce yapıldı.
Ayın 19'si saat 00 UTC'den ayın 19'si saat 24 UTC'ye kadar geçerli Tahmin
Rüzgar güney/güneydoğudan 2 kt
Görüş mesafesi: 7000 m
1300 ft yükseklikte az bulutlu
Olasılık 30%
ayın 19'si saat 02 UTC'den ayın 19'si saat 08 UTC'ye kadar
Görüş mesafesi: 2000 m
Pus
Olasılık 30% :
Geçici
ayın 19'si saat 12 UTC'den ayın 19'si saat 15 UTC'ye kadar
1300 ft yükseklikte parçalı çok bulutlu

TAF: DIBK 182300Z 1900/1924 16002KT 7000 FEW013 PROB30 1902/1908 2000 BR PROB30 TEMPO 1912/1915 BKN013

4.000'den fazla havaalanı için hava durumu gözlemleri ve tahminleri (METAR ve TAF raporları).

Kullanılabilir istasyonlar harita üzerinde sarı ve kırmızı noktalarla gösterilir.

İstasyonun adını görmek için fareyi noktanın üzerinde gezdirin.

Sonrasında hava gözlem ve tahminlerini görmek için tıklayın.

Haritayı değiştirmek için: yaklaştırmak için siyah artı işaretli yeşil düğmeye ve uzaklaştırmak için de eksi işaretli düğmeye hızla tıklayın; bitişik haritalar için yeşil okları kullanın.


METAR-TAF: